Latest Weather Observations for Cape Willoughby

IDS60801

Issued at 8:35 pm CDT Thursday 23 October 2014 (issued every 30 minutes, with the page automatically refreshed every 10 minutes)

About weather observations | Map of weather stations | Latest weather observations for SA | Other Formats
Station Details ID: 022803 Name: CAPE WILLOUGHBY Lat: -35.84 Lon: 138.13 Height: 55.0 m
Data from the previous 72 hours. | See also: Recent months at Cape Willoughby
Date/Time
CDT
Temp
°C
App
Temp
°C
Dew
Point
Rel
Hum
%
Delta-T
°C
Wind Press
QNH
hPa
Press
MSL
hPa
Rain
since 9 am
mm
Dir
 
Spd
km/h
Gust
km/h
Spd
kts
Gust
kts
23/08:30pm 14.1 13.0 12.1 88 1.1 S 9 15 5 8 1015.9 1015.9 0.0
23/08:00pm 14.0 13.3 11.9 87 1.1 SSE 7 9 4 5 1015.9 1015.9 0.0
23/07:30pm 14.2 12.7 11.9 86 1.2 S 11 17 6 9 1015.6 1015.6 0.0
23/07:00pm 14.3 12.5 12.0 86 1.2 S 13 19 7 10 1015.6 1015.6 0.0
23/06:30pm 14.3 12.0 11.8 85 1.3 SSE 15 22 8 12 1015.2 1015.2 0.0
23/06:00pm 14.4 11.1 11.7 84 1.5 S 20 26 11 14 1015.6 1015.6 0.0
23/05:30pm 14.7 11.7 12.0 84 1.5 S 19 26 10 14 1015.4 1015.4 0.0
23/05:00pm 14.6 12.0 11.9 84 1.5 SSE 17 22 9 12 1015.4 1015.4 0.0
23/04:30pm 14.8 11.8 11.8 82 1.6 S 19 24 10 13 1015.3 1015.3 0.0
23/04:00pm 15.1 11.8 11.7 80 1.8 S 20 28 11 15 1015.5 1015.5 0.0
23/03:30pm 14.8 11.8 11.8 82 1.6 SSE 19 26 10 14 1015.8 1015.8 0.0
23/03:00pm 15.4 13.6 12.0 80 1.8 SSE 13 17 7 9 1016.2 1016.2 0.0
23/02:30pm 14.9 12.5 11.5 80 1.8 SSE 15 22 8 12 1016.5 1016.5 0.0
23/02:00pm 15.2 12.7 12.2 82 1.6 SSE 17 20 9 11 1016.8 1016.8 0.0
23/01:30pm 15.1 13.3 12.1 82 1.6 SSE 13 19 7 10 1017.2 1017.2 0.0
23/01:00pm 15.2 12.6 12.0 81 1.7 SE 17 22 9 12 1017.5 1017.5 0.0
23/12:30pm 15.2 12.1 12.2 82 1.6 SE 20 26 11 14 1017.7 1017.7 0.0
23/12:00pm 15.1 11.6 12.1 82 1.6 SE 22 30 12 16 1018.0 1018.0 0.0
23/11:30am 15.0 11.4 11.8 81 1.7 SE 22 28 12 15 1018.2 1018.2 0.0
23/11:00am 14.8 10.5 11.9 83 1.6 SE 26 32 14 17 1018.5 1018.5 0.0
23/10:30am 14.5 10.3 12.4 87 1.1 SE 26 33 14 18 1018.6 1018.6 0.0
23/10:00am 14.5 9.9 12.2 86 1.3 SE 28 35 15 19 1018.9 1018.9 0.0
23/09:30am 14.4 9.7 11.9 85 1.3 SE 28 33 15 18 1019.0 1019.0 0.0
23/09:00am 14.2 9.5 11.9 86 1.2 SE 28 35 15 19 1019.1 1019.1 0.0
23/08:30am 13.9 8.7 11.6 86 1.2 SE 30 39 16 21 1019.3 1019.3 0.0
23/08:00am 14.0 8.9 11.9 87 1.1 SE 30 39 16 21 1019.1 1019.1 0.0
23/07:30am 13.6 9.6 11.7 88 1.0 SE 24 30 13 16 1019.4 1019.4 0.0
23/07:00am 13.5 7.7 11.6 88 1.0 SE 33 43 18 23 1019.3 1019.3 0.0
23/06:30am 13.4 8.1 11.3 87 1.1 SSE 30 37 16 20 1019.1 1019.1 0.0
23/06:00am 13.6 8.8 11.8 89 1.0 SE 28 37 15 20 1019.1 1019.1 0.0
23/05:30am 14.0 8.9 12.0 88 1.1 SSE 30 41 16 22 1018.9 1018.9 0.0
23/05:00am 13.9 8.2 11.8 87 1.1 SE 33 39 18 21 1019.1 1019.1 0.0
23/04:30am 14.0 8.5 12.0 88 1.1 SE 32 37 17 20 1018.7 1018.7 0.0
23/04:00am 14.0 8.9 12.0 88 1.1 SSE 30 37 16 20 1019.0 1019.0 0.0
23/03:30am 14.1 9.0 12.0 87 1.1 SSE 30 39 16 21 1019.1 1019.1 0.0
23/03:00am 14.0 8.6 12.2 89 1.0 SSE 32 39 17 21 1019.2 1019.2 0.0
23/02:30am 14.3 9.4 12.7 90 0.9 SSE 30 37 16 20 1019.3 1019.3 0.0
23/02:00am 14.0 9.4 12.2 89 1.0 SSE 28 37 15 20 1019.7 1019.7 0.0
23/01:30am 13.8 9.2 12.2 90 0.9 SSE 28 35 15 19 1020.3 1020.2 0.0
23/01:00am 13.7 9.0 12.1 90 0.9 SSE 28 39 15 21 1020.5 1020.4 0.0
23/12:30am 14.0 9.9 12.6 91 0.8 SSE 26 37 14 20 1020.7 1020.6 0.0
23/12:00am 13.8 8.8 12.2 90 0.9 SSE 30 41 16 22 1020.7 1020.6 0.0
 
Date/Time
CDT
Temp
°C
App
Temp
°C
Dew
Point
Rel
Hum
%
Delta-T
°C
Wind Press
QNH
hPa
Press
MSL
hPa
Rain
since 9 am
mm
Dir
 
Spd
km/h
Gust
km/h
Spd
kts
Gust
kts
22/11:30pm 13.8 7.8 12.2 90 0.9 SSE 35 44 19 24 1021.1 1021.0 0.0
22/11:00pm 13.7 8.3 12.1 90 0.9 SSE 32 43 17 23 1021.0 1020.9 0.0
22/10:30pm 14.2 9.4 12.9 92 0.7 SSE 30 37 16 20 1021.4 1021.3 0.0
22/10:00pm 13.9 8.6 12.5 91 0.8 SSE 32 41 17 22 1021.2 1021.1 0.0
22/09:30pm 14.0 9.1 12.4 90 0.9 SSE 30 41 16 22 1021.1 1021.0 0.0
22/09:00pm 14.1 9.2 12.7 91 0.8 SSE 30 41 16 22 1020.7 1020.6 0.0
22/08:30pm 14.2 9.3 12.6 90 0.9 SSE 30 43 16 23 1020.5 1020.4 0.0
22/08:00pm 14.2 8.7 12.4 89 1.0 SSE 33 41 18 22 1019.8 1019.8 0.0
22/07:30pm 14.3 8.5 12.7 90 0.9 S 35 46 19 25 1019.7 1019.7 0.0
22/07:00pm 14.4 7.9 12.8 90 0.9 S 39 46 21 25 1019.3 1019.3 0.0
22/06:30pm 14.6 8.5 13.0 90 0.9 S 37 46 20 25 1019.1 1019.1 0.0
22/06:00pm 14.4 8.6 12.8 90 0.9 S 35 44 19 24 1019.1 1019.1 0.0
22/05:30pm 14.5 9.2 13.0 91 0.8 S 33 43 18 23 1019.0 1019.0 0.0
22/05:00pm 14.7 9.1 13.4 92 0.7 S 35 43 19 23 1019.0 1019.0 0.0
22/04:30pm 14.9 9.3 13.4 91 0.8 S 35 46 19 25 1018.8 1018.8 0.0
22/04:00pm 15.0 9.0 13.2 89 1.0 S 37 46 20 25 1018.9 1018.9 0.0
22/03:30pm 15.1 9.6 13.5 90 0.9 S 35 44 19 24 1019.0 1019.0 0.0
22/03:00pm 15.2 9.2 13.2 88 1.1 S 37 44 20 24 1019.0 1019.0 0.0
22/02:30pm 15.3 10.3 13.5 89 1.0 S 32 46 17 25 1018.9 1018.9 0.0
22/02:00pm 15.3 10.3 13.5 89 1.0 S 32 43 17 23 1019.0 1019.0 0.0
22/01:30pm 15.8 11.6 13.5 86 1.3 SSW 28 44 15 24 1019.3 1019.3 0.0
22/01:00pm 15.7 11.3 13.0 84 1.5 S 28 43 15 23 1019.2 1019.2 0.0
22/12:30pm 15.8 11.5 13.3 85 1.4 S 28 44 15 24 1019.1 1019.1 0.0
22/12:00pm 16.1 11.5 13.6 85 1.4 SSW 30 44 16 24 1019.0 1019.0 0.0
22/11:30am 16.3 9.7 13.6 84 1.5 SSW 41 50 22 27 1018.9 1018.9 0.0
22/11:00am 16.9 11.2 14.2 84 1.5 SSW 37 48 20 26 1018.9 1018.9 0.0
22/10:30am 16.9 11.6 14.2 84 1.5 SSW 35 44 19 24 1018.6 1018.6 0.0
22/10:00am 16.9 12.0 14.4 85 1.4 SSW 33 41 18 22 1018.6 1018.6 0.0
22/09:30am 16.4 11.1 14.1 86 1.3 SSW 35 43 19 23 1018.2 1018.2 0.0
22/09:00am 16.3 10.6 14.3 88 1.1 SSW 37 43 20 23 1018.0 1018.0 0.0
22/08:30am 16.2 10.1 14.2 88 1.1 SW 39 46 21 25 1017.8 1017.8 0.0
22/08:00am 16.2 10.1 14.2 88 1.1 SW 39 44 21 24 1017.6 1017.6 0.0
22/07:30am 16.3 10.2 14.0 86 1.3 SW 39 44 21 24 1017.1 1017.1 0.0
22/07:00am 16.5 11.3 13.4 82 1.7 SW 33 41 18 22 1016.9 1016.9 0.0
22/06:30am 16.7 11.1 13.4 81 1.9 SW 35 41 19 22 1016.5 1016.5 0.0
22/06:00am 17.0 11.6 12.9 77 2.3 SW 33 39 18 21 1016.2 1016.2 0.0
22/05:30am 17.2 12.1 13.1 77 2.3 SW 32 37 17 20 1016.2 1016.2 0.0
22/05:00am 17.5 13.1 13.0 75 2.5 SW 28 33 15 18 1016.1 1016.1 0.0
22/04:30am 18.9 16.6 10.5 58 4.5 SW 13 20 7 11 1016.1 1016.1 0.0
22/04:00am 19.1 17.8 10.1 56 4.8 NE 7 13 4 7 1015.9 1015.9 0.0
22/03:30am 18.9 14.7 11.0 60 4.3 WSW 24 30 13 16 1015.9 1015.9 0.0
22/03:00am 17.5 14.6 13.0 75 2.5 N 20 24 11 13 1015.8 1015.8 0.0
22/02:30am 17.9 16.8 13.0 73 2.8 N 11 13 6 7 1015.9 1015.9 0.0
22/02:00am 20.8 18.2 9.4 48 6.1 S 13 17 7 9 1015.5 1015.5 0.0
22/01:30am 20.1 18.3 10.8 55 5.1 SSE 11 15 6 8 1016.3 1016.3 0.0
22/01:00am 21.1 16.3 8.7 45 6.6 SSW 24 32 13 17 1017.0 1017.0 0.0
22/12:30am 19.9 15.9 10.3 54 5.2 SW 22 28 12 15 1017.7 1017.7 0.0
22/12:00am 19.6 13.3 11.1 58 4.6 SW 35 44 19 24 1017.7 1017.7 0.0
 
Date/Time
CDT
Temp
°C
App
Temp
°C
Dew
Point
Rel
Hum
%
Delta-T
°C
Wind Press
QNH
hPa
Press
MSL
hPa
Rain
since 9 am
mm
Dir
 
Spd
km/h
Gust
km/h
Spd
kts
Gust
kts
21/11:30pm 18.9 13.4 12.4 66 3.6 SW 33 41 18 22 1017.3 1017.3 0.0
21/11:00pm 19.9 14.7 11.7 59 4.5 SW 30 33 16 18 1017.9 1017.9 0.0
21/10:38pm 23.3 14.6 7.8 37 8.2 SW 43 52 23 28 1017.8 1017.8 0.0
21/10:30pm 27.2 22.1 4.3 23 11.6 WSW 20 26 11 14 1017.7 1017.7 0.0
21/10:00pm 28.3 24.5 3.9 21 12.4 N 13 17 7 9 1017.4 1017.4 0.0
21/09:30pm 27.8 24.5 4.8 23 11.8 NNE 11 17 6 9 1017.1 1017.1 0.0
21/09:00pm 26.9 23.7 5.2 25 11.1 NNE 11 15 6 8 1017.2 1017.2 0.0
21/08:30pm 25.5 22.4 5.7 28 10.2 N 11 15 6 8 1016.7 1016.7 0.0
21/08:00pm 26.6 25.1 5.0 25 11.0 N 2 7 1 4 1016.5 1016.5 0.0
21/07:30pm 25.8 23.4 5.4 27 10.4 N 7 7 4 4 1016.4 1016.4 0.0
21/07:00pm 24.8 22.5 7.4 33 9.2 N 9 13 5 7 1016.4 1016.4 0.0
21/06:30pm 26.8 24.7 6.8 28 10.5 N 7 9 4 5 1016.4 1016.4 0.0
21/06:00pm 27.4 25.8 6.2 26 11.1 NNE 4 6 2 3 1016.3 1016.3 0.0
21/05:30pm 27.0 25.7 7.5 29 10.4 NNE 4 6 2 3 1016.6 1016.6 0.0
21/05:00pm 27.4 26.3 8.3 30 10.4 NNE 4 7 2 4 1016.6 1016.6 0.0
21/04:30pm 26.4 24.8 8.8 33 9.6 NNE 7 9 4 5 1016.6 1016.6 0.0
21/04:00pm 24.2 22.8 10.8 43 7.5 NE 9 11 5 6 1016.7 1016.7 0.0
21/03:30pm 24.6 23.8 11.2 43 7.5 N 6 7 3 4 1017.1 1017.1 0.0
21/03:00pm 23.3 22.3 11.0 46 6.8 NNE 7 9 4 5 1017.3 1017.3 0.0
21/02:30pm 23.9 23.2 11.9 47 6.8 NNE 7 13 4 7 1017.8 1017.8 0.0
21/02:00pm 23.4 22.1 11.1 46 6.9 NNE 9 11 5 6 1018.3 1018.3 0.0
21/01:30pm 23.2 22.0 11.6 48 6.5 NNE 9 13 5 7 1018.6 1018.6 0.0
21/01:00pm 21.6 20.0 11.6 53 5.6 NNE 11 19 6 10 1018.9 1018.9 0.0
21/12:30pm 19.9 18.4 11.9 60 4.4 N 11 17 6 9 1019.2 1019.2 0.0
21/12:00pm 19.6 18.0 11.6 60 4.4 NNE 11 22 6 12 1019.7 1019.7 0.0
21/11:30am 18.9 16.5 11.5 62 4.1 NE 15 22 8 12 1020.0 1019.9 0.0
21/11:00am 19.0 17.3 11.3 61 4.2 NNE 11 17 6 9 1020.2 1020.1 0.0
21/10:30am 18.8 17.1 11.1 61 4.2 N 11 17 6 9 1020.4 1020.3 0.0
21/10:00am 18.9 15.4 11.0 60 4.3 NE 20 30 11 16 1020.6 1020.5 0.0
21/09:30am 18.1 14.5 10.7 62 4.0 ENE 20 28 11 15 1020.4 1020.3 0.0
21/09:00am 18.1 12.5 10.2 60 4.2 ENE 30 39 16 21 1020.2 1020.1 0.0
21/08:30am 17.8 11.6 10.2 61 4.0 ENE 33 41 18 22 1020.1 1020.0 0.0
21/08:00am 17.8 11.7 10.4 62 4.0 ENE 33 39 18 21 1019.8 1019.8 0.0
21/07:30am 17.3 11.5 10.7 65 3.5 ENE 32 37 17 20 1019.6 1019.6 0.0
21/07:00am 16.8 10.9 11.1 69 3.1 ENE 33 41 18 22 1019.2 1019.2 0.0
21/06:30am 17.1 11.4 11.2 68 3.2 ENE 32 37 17 20 1019.2 1019.2 0.0
21/06:00am 17.3 13.0 10.9 66 3.4 NE 24 33 13 18 1019.2 1019.2 0.0
21/05:30am 16.8 14.3 11.1 69 3.1 N 15 20 8 11 1019.1 1019.1 0.0
21/05:00am 17.2 12.0 11.7 70 3.0 ENE 30 35 16 19 1018.9 1018.9 0.0
21/04:30am 16.9 13.0 12.2 74 2.6 ENE 24 30 13 16 1018.9 1018.9 0.0
21/04:00am 16.9 12.8 12.8 77 2.3 ENE 26 32 14 17 1019.0 1019.0 0.0
21/03:30am 16.3 15.2 13.2 82 1.7 NE 11 19 6 10 1019.3 1019.3 0.0
21/03:00am 16.2 14.1 13.5 84 1.5 ENE 17 22 9 12 1019.7 1019.7 0.0
21/02:30am 16.1 13.8 13.0 82 1.7 E 17 20 9 11 1020.2 1020.1 0.0
21/02:00am 16.2 13.9 13.1 82 1.7 E 17 20 9 11 1020.6 1020.5 0.0
21/01:30am 16.2 14.8 13.3 83 1.6 E 13 19 7 10 1020.9 1020.8 0.0
21/01:00am 16.3 15.3 13.4 83 1.6 E 11 15 6 8 1021.4 1021.3 0.0
21/12:30am 16.1 14.7 13.4 84 1.5 ENE 13 19 7 10 1021.6 1021.5 0.0
21/12:00am 16.0 14.6 13.3 84 1.5 ENE 13 17 7 9 1022.0 1021.9 0.0
 
Date/Time
CDT
Temp
°C
App
Temp
°C
Dew
Point
Rel
Hum
%
Delta-T
°C
Wind Press
QNH
hPa
Press
MSL
hPa
Rain
since 9 am
mm
Dir
 
Spd
km/h
Gust
km/h
Spd
kts
Gust
kts
20/11:30pm 15.7 14.2 13.0 84 1.5 NE 13 17 7 9 1022.3 1022.2 0.0
20/11:00pm 15.6 14.4 12.9 84 1.5 NE 11 15 6 8 1022.7 1022.6 0.0
20/10:30pm 15.6 14.5 13.1 85 1.4 NE 11 13 6 7 1022.9 1022.8 0.0
20/10:00pm 15.5 14.4 13.0 85 1.4 ENE 11 13 6 7 1023.0 1022.9 0.0
20/09:30pm 15.4 14.5 12.7 84 1.5 ENE 9 13 5 7 1023.0 1022.9 0.0
20/09:00pm 15.3 14.5 12.8 85 1.4 NNE 9 11 5 6 1023.1 1023.0 0.0

Other Formats:

Comma delimited format used in spreadsheet applications
http://www.bom.gov.au/fwo/IDS60801/IDS60801.94822.axf

JavaScript Object Notation format (JSON) in row-major order
http://www.bom.gov.au/fwo/IDS60801/IDS60801.94822.json